Angle Inlet, Minnesota
Current Conditions -  °F | °C
As of 1:14 PM on Tuesday 21 Oct 2014 (Local Time) from KFGN Reporting Station
Clear Clear  
Wind Chill: 41°   Ceiling: Unl
Heat Index: 48°   Visibility: 10mi
Dew Point: 41°   Wind: 20mph
Humidity: 76%   Direction: 160°SSE
Pressure: 30.05"   Gusts: NA
Location:  49.35°N, 95.08°W
Report Text: KFGN 211814Z AUTO 16017KT 10SM CLR 09/05 A3005 RMK AO2
Loading
Personal Weather Stations






























Interactive Weather Map New forecast layout! Learn more

10-Day Weather Forecast

Advertisements
Track Severe Weather on mobile